Time;durP1;ratioP1;P1;durP2;ratioP2;P2;SDS_P1;SDS_P2;PMS_P1;PMS_P2;Temp;Humidity;BMP_temperature;BMP_pressure;BME280_temperature;BME280_humidity;BME280_pressure;Samples;Min_cycle;Max_cycle;Signal;HPM_P1;HPM_P2
2023/01/23 00:00:29;;;;;;;22.20;9.63;;;1.80;99.90;;;;;;5071303;28;20032;-51
2023/01/23 00:02:55;;;;;;;26.20;10.35;;;2.00;99.90;;;;;;5069698;28;20044;-53
2023/01/23 00:05:21;;;;;;;18.15;9.68;;;2.10;99.90;;;;;;5070799;28;20128;-51
2023/01/23 00:07:47;;;;;;;19.23;9.27;;;1.60;99.90;;;;;;5053378;28;20131;-51
2023/01/23 00:10:12;;;;;;;20.85;9.73;;;2.00;99.90;;;;;;5071676;28;20040;-48
2023/01/23 00:12:43;;;;;;;21.50;10.15;;;2.00;99.90;;;;;;5071350;28;20369;-52
2023/01/23 00:15:10;;;;;;;26.55;11.35;;;1.70;99.90;;;;;;5070796;28;20044;-50
2023/01/23 00:17:36;;;;;;;21.27;10.35;;;1.80;99.90;;;;;;5070226;28;20505;-52
2023/01/23 00:20:03;;;;;;;25.70;10.45;;;1.60;99.90;;;;;;5071316;28;20060;-48
2023/01/23 00:22:29;;;;;;;19.77;9.82;;;1.60;99.90;;;;;;5071036;28;20051;-52
2023/01/23 00:24:55;;;;;;;24.08;9.93;;;2.00;99.90;;;;;;5071278;28;20033;-51
2023/01/23 00:27:21;;;;;;;24.58;11.05;;;1.70;99.90;;;;;;5071097;28;20495;-49
2023/01/23 00:29:46;;;;;;;20.00;9.52;;;2.00;99.90;;;;;;5071253;28;20075;-51
2023/01/23 00:32:12;;;;;;;21.20;9.52;;;1.70;99.90;;;;;;5070878;28;20036;-49
2023/01/23 00:34:38;;;;;;;20.67;10.60;;;1.80;99.90;;;;;;5071234;28;20383;-50
2023/01/23 00:37:04;;;;;;;22.02;9.23;;;1.90;99.90;;;;;;5077218;28;20039;-51
2023/01/23 00:39:29;;;;;;;22.38;10.13;;;2.00;99.90;;;;;;5071198;28;20472;-50
2023/01/23 00:41:55;;;;;;;19.75;9.80;;;1.90;99.90;;;;;;5070996;28;20036;-50
2023/01/23 00:44:21;;;;;;;22.40;10.27;;;2.00;99.90;;;;;;5070453;28;20132;-50
2023/01/23 00:46:47;;;;;;;20.90;9.73;;;1.70;99.90;;;;;;5073714;28;20475;-48
2023/01/23 00:49:16;;;;;;;21.63;10.43;;;2.00;99.90;;;;;;5070702;28;20152;-50
2023/01/23 00:51:43;;;;;;;24.52;10.90;;;1.80;99.90;;;;;;5070825;28;20982;-49
2023/01/23 00:54:08;;;;;;;21.73;10.52;;;1.90;99.90;;;;;;5070927;28;20472;-51
2023/01/23 00:56:34;;;;;;;23.08;10.50;;;1.80;99.90;;;;;;5070241;28;20117;-51
2023/01/23 00:59:00;;;;;;;24.08;10.48;;;2.10;99.90;;;;;;5070783;28;20046;-53
2023/01/23 01:01:27;;;;;;;22.65;10.88;;;2.10;99.90;;;;;;5070554;28;20042;-49
2023/01/23 01:03:53;;;;;;;20.90;9.77;;;2.10;99.90;;;;;;5070591;28;20038;-51
2023/01/23 01:06:19;;;;;;;21.90;10.88;;;2.10;99.90;;;;;;5070572;28;20504;-51
2023/01/23 01:08:45;;;;;;;24.90;10.45;;;2.10;99.90;;;;;;5070171;28;20550;-49
2023/01/23 01:11:11;;;;;;;20.70;10.35;;;2.00;99.90;;;;;;5070527;28;20040;-50
2023/01/23 01:13:37;;;;;;;20.75;10.45;;;2.00;99.90;;;;;;5070449;28;20383;-50
2023/01/23 01:16:03;;;;;;;21.20;10.68;;;2.00;99.90;;;;;;5070414;28;20036;-49
2023/01/23 01:18:29;;;;;;;20.70;10.52;;;1.70;99.90;;;;;;5070431;28;20383;-52
2023/01/23 01:20:55;;;;;;;23.60;10.30;;;1.70;99.90;;;;;;5070346;28;20472;-51
2023/01/23 01:23:20;;;;;;;25.13;11.05;;;2.10;99.90;;;;;;5070211;28;20036;-51
2023/01/23 01:25:46;;;;;;;20.50;10.73;;;2.10;99.90;;;;;;5069138;28;20051;-48
2023/01/23 01:28:12;;;;;;;23.60;11.35;;;2.10;99.90;;;;;;5070305;28;20122;-51
2023/01/23 01:30:39;;;;;;;24.77;10.50;;;1.90;99.90;;;;;;5070452;28;20047;-50
2023/01/23 01:33:05;;;;;;;22.58;11.10;;;1.60;99.90;;;;;;5069696;28;20055;-52
2023/01/23 01:35:31;;;;;;;23.25;10.60;;;2.00;99.90;;;;;;5081520;28;20042;-49
2023/01/23 01:37:57;;;;;;;26.63;11.05;;;1.90;99.90;;;;;;5070187;28;20040;-50
2023/01/23 01:40:27;;;;;;;22.35;10.98;;;2.20;99.90;;;;;;5069837;28;20040;-53
2023/01/23 01:42:59;;;;;;;23.77;10.82;;;2.00;99.90;;;;;;5070130;28;20036;-50
2023/01/23 01:45:55;;;;;;;26.23;11.13;;;1.60;99.90;;;;;;5070283;28;20047;-50
2023/01/23 01:48:25;;;;;;;21.58;10.32;;;1.70;99.90;;;;;;5068266;28;20041;-48
2023/01/23 01:50:52;;;;;;;22.52;10.82;;;2.00;99.90;;;;;;5069860;28;20388;-49
2023/01/23 01:53:19;;;;;;;20.13;10.55;;;1.90;99.90;;;;;;5051848;28;20048;-50
2023/01/23 01:55:45;;;;;;;29.02;11.02;;;1.70;99.90;;;;;;5069668;28;20071;-50
2023/01/23 01:58:12;;;;;;;20.90;10.70;;;1.80;99.90;;;;;;5071510;28;20029;-49
2023/01/23 02:00:39;;;;;;;26.95;11.32;;;1.90;99.90;;;;;;5074415;28;20037;-52
2023/01/23 02:03:05;;;;;;;22.65;10.75;;;2.10;99.90;;;;;;5070853;28;20041;-50
2023/01/23 02:05:38;;;;;;;23.15;11.13;;;1.90;99.90;;;;;;5073997;28;20138;-52
2023/01/23 02:08:07;;;;;;;24.17;11.65;;;1.80;99.90;;;;;;5072359;28;20445;-50
2023/01/23 02:10:35;;;;;;;24.70;11.25;;;2.00;99.90;;;;;;5073854;28;20502;-49
2023/01/23 02:13:22;;;;;;;22.52;10.90;;;2.20;99.90;;;;;;5073103;28;20086;-53
2023/01/23 02:15:49;;;;;;;23.10;10.57;;;2.00;99.90;;;;;;5073425;28;20121;-52
2023/01/23 02:18:15;;;;;;;22.45;11.05;;;2.10;99.90;;;;;;5073293;28;20173;-49
2023/01/23 02:20:41;;;;;;;23.65;11.70;;;2.10;99.90;;;;;;5073506;28;20111;-53
2023/01/23 02:23:32;;;;;;;24.67;11.68;;;2.10;99.90;;;;;;5073303;28;20614;-51
2023/01/23 02:26:04;;;;;;;26.10;13.13;;;1.70;99.90;;;;;;5073491;28;20079;-50
2023/01/23 02:28:42;;;;;;;22.52;11.13;;;1.70;99.90;;;;;;5073653;28;20040;-52
2023/01/23 02:31:09;;;;;;;23.70;11.38;;;2.10;99.90;;;;;;5073557;28;20496;-49
2023/01/23 02:33:35;;;;;;;22.15;11.27;;;1.70;99.90;;;;;;5073435;28;20032;-52
2023/01/23 02:36:04;;;;;;;25.20;12.02;;;1.70;99.90;;;;;;5073067;28;20086;-52
2023/01/23 02:38:34;;;;;;;28.17;11.77;;;1.70;99.90;;;;;;5071722;28;20041;-49
2023/01/23 02:41:02;;;;;;;22.58;11.75;;;1.90;99.90;;;;;;5072810;28;20491;-51
2023/01/23 02:43:33;;;;;;;25.73;12.15;;;1.90;99.90;;;;;;5072578;28;20090;-51
2023/01/23 02:46:08;;;;;;;24.88;11.48;;;1.80;99.90;;;;;;5071852;28;20043;-50
2023/01/23 02:48:35;;;;;;;28.52;12.60;;;2.20;99.90;;;;;;5072975;28;20044;-52
2023/01/23 02:51:01;;;;;;;27.23;11.63;;;1.90;99.90;;;;;;5072879;28;20047;-49
2023/01/23 02:53:28;;;;;;;27.02;12.23;;;2.10;99.90;;;;;;5071415;28;20037;-50
2023/01/23 02:55:55;;;;;;;27.73;13.27;;;2.10;99.90;;;;;;5072405;28;20051;-52
2023/01/23 03:01:05;;;;;;;;;;;1.70;99.90;;;;;;5073660;28;20059;-51
2023/01/23 03:03:31;;;;;;;27.85;12.13;;;2.20;99.90;;;;;;5072162;28;20376;-52
2023/01/23 03:05:58;;;;;;;26.13;12.95;;;1.70;99.90;;;;;;5072397;28;20064;-52
2023/01/23 03:08:33;;;;;;;27.85;12.75;;;2.00;99.90;;;;;;5070864;28;20408;-52
2023/01/23 03:11:00;;;;;;;30.73;12.75;;;2.20;99.90;;;;;;5072685;28;20036;-53
2023/01/23 03:13:27;;;;;;;29.95;12.95;;;2.00;99.90;;;;;;5071350;28;20033;-52
2023/01/23 03:15:52;;;;;;;26.65;12.43;;;2.10;99.90;;;;;;5071186;28;20435;-52
2023/01/23 03:18:19;;;;;;;27.17;13.35;;;1.80;99.90;;;;;;5072686;28;20036;-48
2023/01/23 03:20:45;;;;;;;29.23;13.32;;;2.20;99.90;;;;;;5072497;28;20055;-50
2023/01/23 03:23:10;;;;;;;26.10;13.90;;;2.60;99.90;;;;;;5072383;28;20033;-49
2023/01/23 03:25:41;;;;;;;30.77;13.95;;;2.00;99.90;;;;;;5084492;28;20043;-48
2023/01/23 03:30:11;;;;;;;33.17;13.60;;;1.70;99.90;;;;;;5072321;28;20073;-49
2023/01/23 03:30:52;;;;;;;25.08;12.43;;;2.30;99.90;;;;;;5073683;28;20170;-49
2023/01/23 03:33:18;;;;;;;26.70;13.20;;;1.70;99.90;;;;;;5072050;28;20123;-52
2023/01/23 03:35:44;;;;;;;30.65;13.77;;;2.70;99.90;;;;;;5072345;28;20150;-50
2023/01/23 03:38:10;;;;;;;31.85;14.88;;;2.20;99.90;;;;;;5072199;28;20079;-50
2023/01/23 03:43:20;;;;;;;31.25;13.88;;;1.80;99.90;;;;;;5072201;28;20036;-51
2023/01/23 03:45:45;;;;;;;27.98;13.32;;;1.80;99.90;;;;;;5071890;28;20136;-52
2023/01/23 03:48:11;;;;;;;34.05;13.93;;;2.20;99.90;;;;;;5072091;28;20037;-48
2023/01/23 03:50:37;;;;;;;30.23;13.82;;;2.20;99.90;;;;;;5072025;28;20476;-50
2023/01/23 03:53:02;;;;;;;32.95;12.73;;;1.90;99.90;;;;;;5072708;28;20040;-49
2023/01/23 03:55:28;;;;;;;29.80;13.68;;;2.20;99.90;;;;;;5070372;28;20063;-50
2023/01/23 03:57:54;;;;;;;29.60;13.95;;;1.80;99.90;;;;;;5070452;28;20043;-51
2023/01/23 04:00:19;;;;;;;31.98;14.90;;;1.70;99.90;;;;;;5072016;28;20047;-49
2023/01/23 04:02:45;;;;;;;28.15;13.93;;;1.70;99.90;;;;;;5070290;28;20064;-48
2023/01/23 04:05:11;;;;;;;29.40;14.25;;;2.10;99.90;;;;;;5072477;28;20043;-50
2023/01/23 04:07:36;;;;;;;27.48;14.70;;;1.80;99.90;;;;;;5078234;28;20052;-50
2023/01/23 04:10:02;;;;;;;29.38;14.13;;;2.00;99.90;;;;;;5070477;28;20036;-51
2023/01/23 04:12:28;;;;;;;35.00;14.00;;;2.30;99.90;;;;;;5071369;28;20044;-53
2023/01/23 04:14:54;;;;;;;30.23;14.52;;;1.90;99.90;;;;;;5071230;28;20032;-49
2023/01/23 04:17:19;;;;;;;34.83;15.02;;;2.30;99.90;;;;;;5071569;28;20067;-51
2023/01/23 04:19:45;;;;;;;30.63;14.85;;;2.30;99.90;;;;;;5071107;28;20488;-47
2023/01/23 04:22:11;;;;;;;32.50;14.80;;;1.80;99.90;;;;;;5070895;28;20373;-52
2023/01/23 04:24:36;;;;;;;32.50;15.52;;;2.30;99.90;;;;;;5069858;28;20048;-53
2023/01/23 04:27:02;;;;;;;31.77;14.40;;;2.20;99.90;;;;;;5072174;28;20040;-49
2023/01/23 04:29:28;;;;;;;31.90;14.25;;;2.30;99.90;;;;;;5071605;28;20086;-51
2023/01/23 04:31:53;;;;;;;34.15;15.30;;;1.80;99.90;;;;;;5070978;28;20037;-49
2023/01/23 04:34:19;;;;;;;33.47;15.68;;;2.20;99.90;;;;;;5070636;28;20045;-51
2023/01/23 04:36:45;;;;;;;33.55;15.25;;;1.70;99.90;;;;;;5071087;28;20035;-50
2023/01/23 04:39:10;;;;;;;31.08;15.02;;;2.60;99.90;;;;;;5071005;28;20032;-53
2023/01/23 04:41:36;;;;;;;35.58;14.93;;;2.30;99.90;;;;;;5071764;28;20032;-52
2023/01/23 04:44:21;;;;;;;29.45;13.93;;;2.60;99.90;;;;;;5071597;28;20043;-48
2023/01/23 04:46:53;;;;;;;35.63;14.88;;;1.70;99.90;;;;;;5070787;28;20448;-51
2023/01/23 04:49:21;;;;;;;29.55;14.27;;;2.20;99.90;;;;;;5070701;28;20460;-48
2023/01/23 04:51:48;;;;;;;31.02;15.38;;;1.90;99.90;;;;;;5070249;28;20082;-48
2023/01/23 04:54:15;;;;;;;30.63;15.32;;;2.10;99.90;;;;;;5069287;28;20044;-48
2023/01/23 04:56:42;;;;;;;34.38;15.55;;;2.00;99.90;;;;;;5070405;28;20059;-50
2023/01/23 04:59:08;;;;;;;33.80;14.77;;;2.20;99.90;;;;;;5070959;28;20040;-51
2023/01/23 05:01:34;;;;;;;35.25;16.17;;;2.00;99.90;;;;;;5070280;28;20115;-49
2023/01/23 05:04:00;;;;;;;30.55;15.13;;;2.10;99.90;;;;;;5068806;28;20070;-51
2023/01/23 05:06:25;;;;;;;29.88;14.27;;;2.10;99.90;;;;;;5070573;28;20416;-51
2023/01/23 05:08:51;;;;;;;34.55;16.20;;;1.80;99.90;;;;;;5070769;28;20384;-50
2023/01/23 05:11:17;;;;;;;33.85;16.17;;;2.30;99.90;;;;;;5070301;28;20029;-53
2023/01/23 05:13:43;;;;;;;32.85;14.70;;;1.80;99.90;;;;;;5070601;28;20453;-51
2023/01/23 05:16:08;;;;;;;28.50;14.93;;;2.00;99.90;;;;;;5070827;28;20476;-48
2023/01/23 05:18:34;;;;;;;35.92;15.95;;;2.30;99.90;;;;;;5070692;28;20041;-51
2023/01/23 05:21:00;;;;;;;34.53;15.77;;;1.80;99.90;;;;;;5070913;28;20059;-50
2023/01/23 05:23:25;;;;;;;36.88;15.57;;;2.30;99.90;;;;;;5070138;28;20036;-50
2023/01/23 05:25:51;;;;;;;32.22;14.52;;;2.20;99.90;;;;;;5069947;28;20128;-53
2023/01/23 05:28:17;;;;;;;31.33;14.27;;;2.60;99.90;;;;;;5069979;28;20482;-52
2023/01/23 05:30:43;;;;;;;31.33;14.25;;;2.00;99.90;;;;;;5068393;28;20036;-49
2023/01/23 05:33:08;;;;;;;33.92;14.77;;;1.80;99.90;;;;;;5068721;28;20368;-50
2023/01/23 05:35:34;;;;;;;32.53;15.35;;;2.30;99.90;;;;;;5070270;28;20124;-52
2023/01/23 05:38:00;;;;;;;38.88;15.18;;;2.10;99.90;;;;;;5069933;28;20041;-53
2023/01/23 05:40:26;;;;;;;32.03;14.38;;;1.90;99.90;;;;;;5071257;28;20041;-50
2023/01/23 05:42:51;;;;;;;36.72;14.35;;;1.80;99.90;;;;;;5081709;28;20036;-51
2023/01/23 05:45:17;;;;;;;35.63;15.30;;;1.80;99.90;;;;;;5080562;28;20040;-50
2023/01/23 05:47:43;;;;;;;31.75;15.00;;;1.80;99.90;;;;;;5070560;28;20062;-48
2023/01/23 05:50:16;;;;;;;33.58;15.25;;;2.30;99.90;;;;;;5070459;28;20138;-52
2023/01/23 05:52:42;;;;;;;34.65;15.18;;;2.30;99.90;;;;;;5070716;28;20090;-48
2023/01/23 05:55:08;;;;;;;31.55;14.45;;;2.10;99.90;;;;;;5070305;28;20048;-48
2023/01/23 05:57:34;;;;;;;28.85;15.38;;;2.10;99.90;;;;;;5069806;28;20063;-49
2023/01/23 06:00:00;;;;;;;33.45;15.88;;;2.20;99.90;;;;;;5070148;28;20037;-52
2023/01/23 06:02:26;;;;;;;37.95;15.93;;;2.30;99.90;;;;;;5069406;28;20503;-49
2023/01/23 06:04:52;;;;;;;36.55;16.33;;;2.00;99.90;;;;;;5069351;28;20040;-49
2023/01/23 06:07:19;;;;;;;34.58;15.50;;;2.30;99.90;;;;;;5069865;28;20495;-53
2023/01/23 06:09:46;;;;;;;31.52;15.50;;;2.40;99.90;;;;;;5069538;28;20048;-49
2023/01/23 06:12:12;;;;;;;29.50;15.00;;;2.10;99.90;;;;;;5067502;28;20070;-51
2023/01/23 06:14:38;;;;;;;34.63;15.05;;;2.30;99.90;;;;;;5067890;28;20041;-50
2023/01/23 06:17:04;;;;;;;28.42;15.35;;;2.20;99.90;;;;;;5069970;28;20392;-48
2023/01/23 06:19:30;;;;;;;35.05;15.88;;;2.60;99.90;;;;;;5050240;28;20085;-50
2023/01/23 06:21:55;;;;;;;36.88;16.20;;;2.10;99.90;;;;;;5068488;28;20064;-49
2023/01/23 06:24:21;;;;;;;38.42;16.90;;;1.80;99.90;;;;;;5069730;28;20117;-49
2023/01/23 06:26:47;;;;;;;32.45;13.90;;;2.00;99.90;;;;;;5070492;28;20040;-50
2023/01/23 06:29:13;;;;;;;34.20;15.23;;;1.90;99.90;;;;;;5068809;28;20089;-50
2023/01/23 06:31:39;;;;;;;32.38;14.95;;;1.80;99.90;;;;;;5069583;28;20123;-47
2023/01/23 06:34:05;;;;;;;34.08;15.23;;;1.80;99.90;;;;;;5069271;28;20070;-51
2023/01/23 06:36:32;;;;;;;31.23;14.82;;;1.80;99.90;;;;;;5069707;28;20074;-50
2023/01/23 06:38:59;;;;;;;35.13;15.70;;;2.30;99.90;;;;;;5068250;28;20494;-48
2023/01/23 06:41:24;;;;;;;32.10;15.20;;;2.30;99.90;;;;;;5069628;28;20037;-50
2023/01/23 06:43:50;;;;;;;31.55;15.20;;;1.80;99.90;;;;;;5070032;28;20395;-51
2023/01/23 06:46:16;;;;;;;30.77;14.82;;;2.00;99.90;;;;;;5077400;28;20452;-47
2023/01/23 06:48:42;;;;;;;30.15;15.38;;;2.10;99.90;;;;;;5080593;28;20060;-50
2023/01/23 06:51:08;;;;;;;36.65;15.75;;;1.80;99.90;;;;;;5073181;28;20032;-52
2023/01/23 06:53:34;;;;;;;32.67;15.07;;;2.20;99.90;;;;;;5054619;28;20090;-53
2023/01/23 06:56:06;;;;;;;31.40;15.27;;;2.40;99.90;;;;;;5072704;28;20044;-50
2023/01/23 06:58:33;;;;;;;34.13;15.98;;;1.80;99.90;;;;;;5072925;28;20469;-49
2023/01/23 07:01:07;;;;;;;34.00;14.88;;;1.80;99.90;;;;;;5071698;28;20044;-51
2023/01/23 07:03:33;;;;;;;34.60;14.80;;;2.00;99.90;;;;;;5072569;28;20032;-52
2023/01/23 07:06:05;;;;;;;30.13;15.32;;;2.20;99.90;;;;;;5072677;28;20040;-49
2023/01/23 07:08:35;;;;;;;32.88;16.08;;;2.20;99.90;;;;;;5072721;28;20044;-48
2023/01/23 07:11:01;;;;;;;36.00;15.88;;;1.90;99.90;;;;;;5072183;28;20101;-49
2023/01/23 07:13:27;;;;;;;34.83;17.13;;;1.80;99.90;;;;;;5072861;28;20116;-52
2023/01/23 07:15:53;;;;;;;33.33;15.57;;;2.30;99.90;;;;;;5072768;28;20037;-50
2023/01/23 07:18:19;;;;;;;35.40;15.70;;;2.40;99.90;;;;;;5072476;28;20043;-49
2023/01/23 07:20:46;;;;;;;35.25;16.00;;;2.40;99.90;;;;;;5071343;28;20396;-51
2023/01/23 07:23:12;;;;;;;33.90;15.27;;;1.80;99.90;;;;;;5072759;28;20422;-48
2023/01/23 07:25:38;;;;;;;34.35;16.00;;;2.40;99.90;;;;;;5072545;28;20032;-50
2023/01/23 07:28:04;;;;;;;36.22;15.48;;;2.30;99.90;;;;;;5070716;28;20040;-50
2023/01/23 07:30:30;;;;;;;34.58;15.90;;;2.40;99.90;;;;;;5071262;28;20056;-48
2023/01/23 07:32:57;;;;;;;34.88;17.00;;;2.30;99.90;;;;;;5071884;28;20051;-53
2023/01/23 07:35:23;;;;;;;32.13;15.48;;;2.40;99.90;;;;;;5072303;28;20029;-49
2023/01/23 07:37:49;;;;;;;33.08;16.65;;;2.10;99.90;;;;;;5072402;28;21387;-50
2023/01/23 07:40:15;;;;;;;33.78;16.65;;;1.80;99.90;;;;;;5072036;28;20028;-52
2023/01/23 07:42:41;;;;;;;32.47;17.38;;;2.40;99.90;;;;;;5072275;28;20040;-51
2023/01/23 07:45:08;;;;;;;33.95;15.95;;;2.30;99.90;;;;;;5072563;28;20041;-49
2023/01/23 07:47:36;;;;;;;32.45;16.23;;;2.40;99.90;;;;;;5071619;28;20067;-49
2023/01/23 07:50:01;;;;;;;31.95;15.57;;;2.10;99.90;;;;;;5072156;28;20879;-51
2023/01/23 07:52:27;;;;;;;34.58;15.07;;;2.40;99.90;;;;;;5079385;28;20036;-49
2023/01/23 07:54:53;;;;;;;35.92;16.02;;;1.90;99.90;;;;;;5071265;28;20041;-49
2023/01/23 07:57:19;;;;;;;35.20;16.27;;;2.40;99.90;;;;;;5071248;28;20817;-51
2023/01/23 07:59:46;;;;;;;36.78;16.40;;;2.60;99.90;;;;;;5071742;28;20090;-47
2023/01/23 08:02:12;;;;;;;36.25;16.73;;;2.40;99.90;;;;;;5071700;28;20468;-48
2023/01/23 08:04:38;;;;;;;34.33;17.20;;;2.10;99.90;;;;;;5067335;28;20079;-49
2023/01/23 08:07:04;;;;;;;32.17;16.48;;;1.90;99.90;;;;;;5068629;28;20048;-49
2023/01/23 08:09:30;;;;;;;31.88;15.23;;;1.90;99.90;;;;;;5065626;28;20125;-51
2023/01/23 08:11:56;;;;;;;34.97;17.10;;;1.90;99.90;;;;;;5068925;28;20121;-51
2023/01/23 08:14:21;;;;;;;34.67;16.45;;;2.50;99.90;;;;;;5064040;28;20538;-48
2023/01/23 08:16:51;;;;;;;30.58;16.08;;;2.40;99.90;;;;;;5066686;28;20063;-48
2023/01/23 08:19:18;;;;;;;34.38;17.05;;;2.40;99.90;;;;;;5068582;28;20116;-48
2023/01/23 08:21:45;;;;;;;34.63;16.70;;;1.90;99.90;;;;;;5072167;28;20040;-54
2023/01/23 08:24:11;;;;;;;33.60;17.05;;;1.90;99.90;;;;;;5072146;28;20510;-50
2023/01/23 08:26:37;;;;;;;35.28;17.55;;;2.00;99.90;;;;;;5072254;28;20079;-50
2023/01/23 08:29:03;;;;;;;34.83;17.50;;;2.10;99.90;;;;;;5070250;28;20051;-49
2023/01/23 08:31:29;;;;;;;38.35;16.38;;;2.60;99.90;;;;;;5070826;28;20384;-51
2023/01/23 08:33:55;;;;;;;31.58;16.35;;;2.40;99.90;;;;;;5068345;28;20036;-50
2023/01/23 08:36:21;;;;;;;32.28;16.83;;;2.00;99.90;;;;;;5067437;28;20032;-51
2023/01/23 08:38:46;;;;;;;33.92;16.90;;;2.00;99.90;;;;;;5070243;28;20159;-50
2023/01/23 08:41:13;;;;;;;31.02;16.38;;;3.50;99.90;;;;;;5069590;28;20392;-53
2023/01/23 08:43:40;;;;;;;32.55;16.35;;;2.60;99.90;;;;;;5067922;28;20036;-53
2023/01/23 08:46:07;;;;;;;39.92;18.00;;;2.50;99.90;;;;;;5068640;28;20081;-48
2023/01/23 08:48:34;;;;;;;30.92;17.65;;;2.10;99.90;;;;;;5069633;28;20036;-50
2023/01/23 08:51:20;;;;;;;33.35;16.40;;;2.70;99.90;;;;;;5065145;28;20116;-49
2023/01/23 08:53:46;;;;;;;32.08;16.63;;;2.70;99.90;;;;;;5062547;28;20082;-51
2023/01/23 08:56:17;;;;;;;30.50;16.88;;;2.20;99.90;;;;;;5046610;28;20103;-48
2023/01/23 08:58:43;;;;;;;33.42;16.15;;;2.20;99.90;;;;;;5071215;28;20024;-51
2023/01/23 09:01:14;;;;;;;33.72;16.77;;;2.40;99.90;;;;;;5067262;28;20044;-52
2023/01/23 09:03:40;;;;;;;33.17;17.52;;;2.20;99.90;;;;;;5067893;28;20032;-50
2023/01/23 09:06:08;;;;;;;30.55;16.98;;;2.80;99.90;;;;;;5067758;28;20063;-50
2023/01/23 09:08:33;;;;;;;33.53;15.70;;;2.20;99.90;;;;;;5068354;28;20090;-52
2023/01/23 09:11:05;;;;;;;34.47;17.58;;;2.30;99.90;;;;;;5063550;28;21048;-49
2023/01/23 09:13:31;;;;;;;31.20;16.67;;;2.90;99.90;;;;;;5066683;28;20036;-52
2023/01/23 09:15:57;;;;;;;33.85;17.77;;;2.70;99.90;;;;;;5066949;28;20112;-50
2023/01/23 09:18:24;;;;;;;31.60;17.58;;;2.80;99.90;;;;;;5069305;28;20039;-50
2023/01/23 09:20:51;;;;;;;33.75;17.27;;;2.30;99.90;;;;;;5067752;28;20029;-50
2023/01/23 09:23:17;;;;;;;33.03;16.90;;;3.60;99.90;;;;;;5066094;28;20147;-51
2023/01/23 09:25:43;;;;;;;30.33;16.27;;;2.70;99.90;;;;;;5063537;28;20075;-51
2023/01/23 09:28:08;;;;;;;32.65;17.77;;;2.90;99.90;;;;;;5063895;28;20527;-49
2023/01/23 09:30:34;;;;;;;31.13;16.58;;;2.70;99.90;;;;;;5059810;28;20068;-51
2023/01/23 09:33:00;;;;;;;29.42;17.00;;;2.40;99.90;;;;;;5069935;28;20391;-51
2023/01/23 09:35:26;;;;;;;37.15;18.35;;;2.80;99.90;;;;;;5069357;28;20040;-51
2023/01/23 09:38:01;;;;;;;31.42;17.05;;;2.70;99.90;;;;;;5067557;28;20033;-49
2023/01/23 09:40:34;;;;;;;33.22;16.73;;;2.50;99.90;;;;;;5066312;28;20032;-51
2023/01/23 09:43:11;;;;;;;31.80;16.25;;;2.60;99.90;;;;;;5067768;28;20033;-52
2023/01/23 09:45:39;;;;;;;31.60;16.10;;;3.10;99.90;;;;;;5065692;28;20048;-47
2023/01/23 09:48:23;;;;;;;32.00;16.13;;;2.90;99.90;;;;;;5064136;28;20485;-49
2023/01/23 09:51:00;;;;;;;29.02;15.52;;;2.90;99.90;;;;;;5066682;28;20041;-51
2023/01/23 09:53:35;;;;;;;28.63;16.15;;;2.80;99.90;;;;;;5066133;28;20038;-51
2023/01/23 09:56:23;;;;;;;32.35;16.90;;;2.80;99.90;;;;;;5064410;28;20420;-52
2023/01/23 09:59:12;;;;;;;27.55;14.75;;;2.60;99.90;;;;;;5065540;28;20045;-51
2023/01/23 10:01:38;;;;;;;27.08;15.48;;;2.70;99.90;;;;;;5067308;28;20057;-49
2023/01/23 10:04:04;;;;;;;30.30;15.38;;;2.80;99.90;;;;;;5066682;28;20058;-50
2023/01/23 10:06:36;;;;;;;29.23;14.65;;;3.50;99.90;;;;;;5067225;28;20029;-53
2023/01/23 10:09:19;;;;;;;26.83;15.35;;;2.90;99.90;;;;;;5064270;28;20047;-49
2023/01/23 10:11:57;;;;;;;30.88;15.13;;;2.80;99.90;;;;;;5067777;28;20050;-52
2023/01/23 10:14:44;;;;;;;25.55;15.07;;;2.80;99.90;;;;;;5067846;28;20361;-47
2023/01/23 10:17:44;;;;;;;25.63;15.10;;;2.90;99.90;;;;;;5067196;28;20068;-51
2023/01/23 10:20:32;;;;;;;25.35;14.00;;;2.70;99.90;;;;;;5065688;28;20032;-50
2023/01/23 10:23:22;;;;;;;24.23;13.82;;;2.90;99.90;;;;;;5067150;28;20127;-48
2023/01/23 10:25:49;;;;;;;23.05;13.25;;;2.90;99.90;;;;;;5068575;28;20560;-51
2023/01/23 10:28:34;;;;;;;23.60;14.07;;;2.90;99.90;;;;;;5067597;28;20083;-50
2023/01/23 10:31:03;;;;;;;26.45;14.52;;;3.20;99.90;;;;;;5066769;28;20155;-50
2023/01/23 10:33:58;;;;;;;27.80;13.55;;;3.00;99.90;;;;;;5066218;28;20083;-47
2023/01/23 10:36:34;;;;;;;26.77;13.70;;;3.20;99.90;;;;;;5036498;28;20053;-51
2023/01/23 10:39:13;;;;;;;27.75;13.35;;;3.20;99.90;;;;;;5065838;28;20033;-50
2023/01/23 10:41:39;;;;;;;27.33;14.00;;;3.10;99.90;;;;;;5065934;28;20384;-51
2023/01/23 10:44:15;;;;;;;25.55;13.52;;;3.20;99.90;;;;;;5065527;28;20032;-47
2023/01/23 10:46:48;;;;;;;24.73;14.48;;;2.90;99.90;;;;;;5063968;28;20036;-49
2023/01/23 10:49:30;;;;;;;25.85;14.75;;;2.90;99.90;;;;;;5064474;28;20040;-50
2023/01/23 10:51:55;;;;;;;26.65;13.90;;;3.00;99.90;;;;;;5070793;28;20141;-49
2023/01/23 10:54:26;;;;;;;25.13;14.32;;;3.00;99.90;;;;;;5068306;28;20076;-47
2023/01/23 10:57:17;;;;;;;24.88;13.75;;;3.20;99.90;;;;;;5064139;28;20551;-52
2023/01/23 10:59:55;;;;;;;23.05;14.35;;;3.30;99.90;;;;;;5063177;28;20495;-48
2023/01/23 11:02:27;;;;;;;23.23;14.70;;;3.30;99.90;;;;;;5062536;28;20069;-50
2023/01/23 11:04:53;;;;;;;22.38;13.07;;;3.30;99.90;;;;;;5060294;28;20086;-49
2023/01/23 11:07:31;;;;;;;24.58;14.20;;;3.00;99.90;;;;;;5067229;28;20032;-53
2023/01/23 11:10:15;;;;;;;26.45;13.27;;;3.10;99.90;;;;;;5065672;28;20048;-49
2023/01/23 11:12:53;;;;;;;22.13;14.02;;;3.10;99.90;;;;;;5068495;28;20035;-49
2023/01/23 11:15:32;;;;;;;24.52;13.15;;;3.30;99.90;;;;;;5062749;28;20128;-48
2023/01/23 11:18:00;;;;;;;24.77;13.98;;;3.30;99.90;;;;;;5062116;28;20041;-52
2023/01/23 11:20:33;;;;;;;23.58;13.18;;;3.20;99.90;;;;;;5067780;28;20123;-47
2023/01/23 11:23:02;;;;;;;24.08;13.63;;;3.50;99.90;;;;;;5065936;28;20032;-49
2023/01/23 11:25:33;;;;;;;22.50;13.48;;;3.30;99.90;;;;;;5065755;28;20048;-51
2023/01/23 11:28:19;;;;;;;20.65;12.73;;;3.40;99.90;;;;;;5069425;28;20045;-50
2023/01/23 11:30:48;;;;;;;20.15;12.85;;;3.50;99.90;;;;;;5070326;28;20400;-49
2023/01/23 11:33:58;;;;;;;19.02;12.05;;;3.30;99.90;;;;;;5068740;28;20403;-49
2023/01/23 11:36:36;;;;;;;19.20;11.68;;;3.30;99.90;;;;;;5003546;28;20141;-47
2023/01/23 11:39:34;;;;;;;20.30;11.93;;;3.40;99.90;;;;;;5008085;28;20497;-51
2023/01/23 11:42:01;;;;;;;20.55;11.35;;;3.50;99.90;;;;;;5052950;28;20661;-50
2023/01/23 11:44:28;;;;;;;17.83;11.13;;;3.50;99.90;;;;;;5068246;28;20391;-49
2023/01/23 11:47:00;;;;;;;19.90;11.73;;;3.50;99.90;;;;;;5068113;28;20123;-52
2023/01/23 11:49:46;;;;;;;19.48;12.00;;;3.90;99.90;;;;;;5070922;28;20381;-50
2023/01/23 11:52:30;;;;;;;19.23;11.73;;;4.20;99.90;;;;;;5058326;28;20127;-49
2023/01/23 11:54:56;;;;;;;;;;;3.50;99.90;;;;;;5068987;28;20056;-48
2023/01/23 11:57:36;;;;;;;15.55;9.25;;;3.50;99.90;;;;;;5069468;28;19925;-50
2023/01/23 12:00:35;;;;;;;15.43;9.68;;;3.50;99.90;;;;;;5070216;28;20047;-48
2023/01/23 12:03:33;;;;;;;17.17;9.48;;;3.50;99.90;;;;;;5048191;28;20041;-51
2023/01/23 12:06:08;;;;;;;15.65;9.85;;;3.50;99.90;;;;;;5068608;28;20049;-49
2023/01/23 12:08:55;;;;;;;18.98;9.93;;;3.60;99.90;;;;;;5070393;28;20391;-50
2023/01/23 12:11:23;;;;;;;16.58;9.43;;;3.60;99.90;;;;;;5069911;28;20044;-52
2023/01/23 12:14:12;;;;;;;15.35;9.40;;;3.70;99.90;;;;;;5070227;28;20087;-51
2023/01/23 12:16:52;;;;;;;13.90;8.63;;;3.80;99.90;;;;;;5066265;28;20499;-48
2023/01/23 12:19:30;;;;;;;15.65;8.98;;;4.00;99.90;;;;;;5068984;28;20039;-50
2023/01/23 12:22:20;;;;;;;14.30;8.95;;;3.80;99.90;;;;;;5073222;28;20033;-47
2023/01/23 12:24:56;;;;;;;14.40;8.68;;;3.90;99.90;;;;;;5072897;28;20132;-48
2023/01/23 12:27:39;;;;;;;15.18;8.98;;;3.80;99.90;;;;;;5085952;28;20557;-48
2023/01/23 12:30:14;;;;;;;13.27;8.40;;;3.90;99.90;;;;;;5074257;28;20071;-49
2023/01/23 12:33:05;;;;;;;13.00;8.25;;;3.80;99.90;;;;;;5073823;28;20042;-49
2023/01/23 12:36:07;;;;;;;12.02;7.85;;;3.80;99.90;;;;;;5085898;28;20547;-50
2023/01/23 12:38:55;;;;;;;14.68;8.20;;;3.80;99.90;;;;;;5087327;28;20049;-49
2023/01/23 12:41:35;;;;;;;15.88;8.80;;;3.80;99.90;;;;;;5077140;28;20047;-52
2023/01/23 12:44:15;;;;;;;14.23;8.75;;;3.90;99.90;;;;;;5085136;28;20032;-52
2023/01/23 12:46:59;;;;;;;14.70;8.80;;;3.90;99.90;;;;;;5073487;28;20035;-49
2023/01/23 12:49:36;;;;;;;13.40;8.90;;;4.00;99.90;;;;;;5072751;28;20037;-50
2023/01/23 12:52:20;;;;;;;14.00;9.43;;;4.00;99.90;;;;;;5083067;28;20039;-50
2023/01/23 12:54:53;;;;;;;16.17;9.15;;;4.00;99.90;;;;;;5074578;28;20604;-51
2023/01/23 12:57:38;;;;;;;14.43;8.75;;;4.00;99.90;;;;;;5073775;28;20053;-47